Pagrindinis puslapis
METAR-TAF:

METAR-TAF

Oro uostai :

Rio Grandė, Argentina

platuma: 53-48S, ilguma: 067-45W, Aukštis: 13 m

Dabartinis oras

Ataskaita buvo paskelbta 1 valandą ir 1 minutes, ne 05:00 UTC
Vėjas 9 kt iš Vakarų/Pietvakarių
Temperatūra -5°C
Drėgmė 79%
Slėgis 995 hPa
Matomumas 10 km arba daugiau
nėra debesų žemiau 1500 m ir nėra kamuolinių lietaus debesų

METAR: SAWE 130500Z 25009KT CAVOK M05/M08 Q0995

Laikas: 03:01 (06:01 UTC)

Prognozė

Ataskaita buvo paskelbta 7 valandos ir 1 minutes, ne 23:00 UTC
Prognozė galioja nuo 13 metu 00 UTC su 13 metu 24 UTC
Vėjas 7 kt nuo kintamojo kryptimis
Matomumas 10 km arba daugiau
nėra debesų žemiau 1500 m ir nėra kamuolinių lietaus debesų

TAF: SAWE 122300Z 1300/1324 VRB07KT CAVOK TX04/1319Z TNM03/1310Z

Orai ataskaitas ir orų prognozės (METAR, TAF).

turimą stotys yra geltonos ir raudonos taškus žemėlapyje.

Perkelti pele per norėdami pamatyti stoties vardą.

Tada spustelėkite, norėdami matyti oro stebėjimo ir prognozės.

Norėdami pakeisti žemėlapį: spustelėkite ant žalios mygtukų su juodo kryžiaus žemyn,; žalią mygtuką su brūkšneliu, jei norite nutolinti; arba žalių rodyklių gretimoms žemėlapius.


METAR-TAF: